Time;durP1;ratioP1;P1;durP2;ratioP2;P2;SDS_P1;SDS_P2;PMS_P1;PMS_P2;Temp;Humidity;BMP_temperature;BMP_pressure;BME280_temperature;BME280_humidity;BME280_pressure;Samples;Min_cycle;Max_cycle;Signal;HPM_P1;HPM_P2
2022/05/27 00:01:16;;;;;;;;;;;19.20;65.00;;;;;;4953312;29;20035;-74
2022/05/27 00:03:42;;;;;;;2.35;0.70;;;19.20;65.00;;;;;;4953043;29;19914;-75
2022/05/27 00:06:08;;;;;;;0.63;0.60;;;19.20;65.00;;;;;;4935671;29;20031;-74
2022/05/27 00:08:34;;;;;;;0.40;0.40;;;19.20;65.10;;;;;;4953349;29;20063;-75
2022/05/27 00:11:00;;;;;;;0.55;0.50;;;19.20;65.20;;;;;;4953114;29;20337;-75
2022/05/27 00:13:28;;;;;;;1.05;0.70;;;19.10;65.30;;;;;;4953003;29;20035;-75
2022/05/27 00:15:54;;;;;;;1.55;0.73;;;19.10;65.20;;;;;;4952835;29;20387;-77
2022/05/27 00:18:19;;;;;;;1.15;1.05;;;19.10;65.20;;;;;;4952887;29;20035;-75
2022/05/27 00:20:47;;;;;;;1.45;0.82;;;19.10;65.20;;;;;;4953386;29;20490;-74
2022/05/27 00:23:14;;;;;;;1.33;0.70;;;19.10;65.30;;;;;;4952644;29;20628;-74
2022/05/27 00:25:40;;;;;;;0.50;0.50;;;19.10;65.10;;;;;;4953243;29;20487;-74
2022/05/27 00:28:07;;;;;;;1.33;0.70;;;19.10;65.20;;;;;;4952628;29;20028;-74
2022/05/27 00:30:33;;;;;;;0.40;0.40;;;19.10;65.10;;;;;;4954711;28;20036;-74
2022/05/27 00:32:58;;;;;;;1.17;0.60;;;19.00;65.20;;;;;;4955996;29;20042;-74
2022/05/27 00:35:24;;;;;;;0.43;0.43;;;19.00;65.20;;;;;;4956551;29;20062;-74
2022/05/27 00:37:50;;;;;;;1.30;0.52;;;19.00;65.60;;;;;;4955243;29;20085;-74
2022/05/27 00:40:17;;;;;;;1.13;0.50;;;19.00;65.10;;;;;;4956125;29;20042;-74
2022/05/27 00:42:44;;;;;;;1.88;0.47;;;19.00;64.90;;;;;;4955921;29;20495;-74
2022/05/27 00:45:19;;;;;;;0.90;0.50;;;19.00;65.00;;;;;;4955827;29;20031;-75
2022/05/27 00:47:45;;;;;;;2.05;0.60;;;19.00;65.00;;;;;;4956357;29;20077;-74
2022/05/27 00:50:14;;;;;;;0.82;0.63;;;19.00;65.00;;;;;;4955848;29;20039;-75
2022/05/27 00:52:42;;;;;;;1.88;0.73;;;19.00;65.30;;;;;;4956048;29;20110;-75
2022/05/27 00:55:14;;;;;;;0.60;0.60;;;18.90;65.40;;;;;;4954931;29;20503;-75
2022/05/27 00:57:52;;;;;;;0.65;0.50;;;18.90;65.70;;;;;;4937304;29;20410;-74
2022/05/27 01:00:22;;;;;;;0.93;0.60;;;18.90;65.80;;;;;;4936347;29;20106;-74
2022/05/27 01:02:49;;;;;;;0.52;0.50;;;18.80;66.10;;;;;;4936930;29;20038;-74
2022/05/27 01:05:18;;;;;;;2.97;0.57;;;18.80;66.10;;;;;;4935985;29;20116;-74
2022/05/27 01:07:43;;;;;;;1.38;0.70;;;18.80;66.30;;;;;;4936751;29;20039;-75
2022/05/27 01:10:18;;;;;;;0.60;0.55;;;18.80;66.30;;;;;;4936316;29;20079;-75
2022/05/27 01:13:18;;;;;;;0.80;0.80;;;18.70;66.30;;;;;;4936624;29;20095;-75
2022/05/27 01:16:02;;;;;;;1.10;0.60;;;18.70;66.30;;;;;;4936645;29;20028;-74
2022/05/27 01:21:44;;;;;;;0.52;0.40;;;18.70;66.60;;;;;;4936042;29;20505;-74
2022/05/27 01:24:25;;;;;;;1.25;0.68;;;18.80;66.80;;;;;;4936057;29;20097;-75
2022/05/27 01:27:29;;;;;;;0.50;0.50;;;18.80;66.90;;;;;;4936596;29;20039;-75
2022/05/27 01:30:19;;;;;;;0.52;0.50;;;18.80;66.90;;;;;;4936362;29;20372;-75
2022/05/27 01:32:51;;;;;;;0.40;0.40;;;18.80;66.80;;;;;;4936459;29;20063;-75
2022/05/27 01:36:03;;;;;;;0.70;0.60;;;18.80;66.60;;;;;;4935875;29;20135;-75
2022/05/27 01:38:29;;;;;;;0.85;0.50;;;18.80;66.70;;;;;;4843086;29;20521;-75
2022/05/27 01:41:12;;;;;;;2.15;0.60;;;18.80;66.60;;;;;;4858496;29;20139;-75
2022/05/27 01:44:07;;;;;;;0.40;0.40;;;18.70;66.50;;;;;;4858512;29;20136;-74
2022/05/27 01:46:38;;;;;;;1.75;0.80;;;18.70;66.50;;;;;;4858770;29;20074;-74
2022/05/27 01:49:28;;;;;;;0.40;0.40;;;18.70;67.10;;;;;;4858223;29;20053;-75
2022/05/27 01:52:18;;;;;;;0.40;0.40;;;18.70;66.60;;;;;;4859001;29;20141;-73
2022/05/27 01:55:03;;;;;;;0.53;0.40;;;18.70;66.70;;;;;;4858727;29;20423;-74
2022/05/27 01:57:35;;;;;;;0.30;0.30;;;18.70;66.70;;;;;;4858470;29;20108;-75
2022/05/27 02:00:04;;;;;;;0.50;0.40;;;18.70;66.60;;;;;;4858223;29;20044;-77
2022/05/27 02:02:31;;;;;;;0.30;0.30;;;18.70;66.70;;;;;;4858395;29;20053;-74
2022/05/27 02:05:27;;;;;;;0.40;0.40;;;18.70;66.50;;;;;;4858528;29;20088;-74
2022/05/27 02:08:00;;;;;;;1.75;0.50;;;18.70;66.50;;;;;;4857754;29;20045;-74
2022/05/27 02:10:41;;;;;;;0.52;0.50;;;18.70;66.70;;;;;;4935217;29;20485;-74
2022/05/27 02:13:27;;;;;;;0.90;0.70;;;18.60;66.70;;;;;;4935383;29;20481;-74
2022/05/27 02:15:54;;;;;;;0.50;0.45;;;18.60;67.00;;;;;;4935704;29;20031;-74
2022/05/27 02:18:36;;;;;;;0.98;0.70;;;18.60;67.10;;;;;;4935062;29;20491;-75
2022/05/27 02:21:08;;;;;;;0.30;0.30;;;18.50;67.30;;;;;;4935213;29;20046;-75
2022/05/27 02:23:41;;;;;;;0.43;0.43;;;18.50;67.50;;;;;;4918532;29;20365;-75
2022/05/27 02:26:15;;;;;;;0.55;0.55;;;18.50;67.50;;;;;;4935005;29;20047;-74
2022/05/27 02:28:46;;;;;;;0.50;0.50;;;18.50;67.60;;;;;;4934278;29;20379;-74
2022/05/27 02:31:22;;;;;;;0.30;0.30;;;18.60;67.80;;;;;;4934980;29;20032;-74
2022/05/27 02:37:00;;;;;;;0.45;0.40;;;18.60;67.80;;;;;;4935040;29;20396;-74
2022/05/27 02:39:27;;;;;;;0.95;0.47;;;18.60;67.60;;;;;;4934753;29;20055;-75
2022/05/27 02:42:07;;;;;;;0.30;0.30;;;18.60;67.70;;;;;;4934845;29;20528;-74
2022/05/27 02:44:59;;;;;;;3.40;0.50;;;18.60;67.80;;;;;;4933380;29;20078;-74
2022/05/27 02:47:47;;;;;;;0.43;0.43;;;18.60;67.90;;;;;;4934105;29;20453;-75
2022/05/27 02:50:26;;;;;;;0.40;0.40;;;18.60;68.10;;;;;;4942788;29;20023;-74
2022/05/27 02:53:08;;;;;;;0.88;0.60;;;18.50;68.20;;;;;;4953731;29;20023;-75
2022/05/27 02:55:47;;;;;;;0.70;0.60;;;18.50;68.30;;;;;;4937002;29;20353;-75
2022/05/27 02:58:13;;;;;;;1.20;0.57;;;18.60;68.40;;;;;;4953568;29;20038;-74
2022/05/27 03:00:41;;;;;;;0.40;0.40;;;18.50;68.40;;;;;;4954113;29;20032;-74
2022/05/27 03:03:07;;;;;;;1.00;0.57;;;18.50;68.60;;;;;;4953432;29;20046;-75
2022/05/27 03:06:01;;;;;;;0.50;0.50;;;18.50;68.30;;;;;;4953785;29;20524;-74
2022/05/27 03:08:54;;;;;;;0.40;0.40;;;18.50;68.70;;;;;;4936055;29;20051;-74
2022/05/27 03:11:34;;;;;;;0.60;0.55;;;18.50;68.70;;;;;;4953433;29;20032;-74
2022/05/27 03:14:16;;;;;;;0.73;0.57;;;18.50;68.70;;;;;;4954153;29;20078;-74
2022/05/27 03:17:30;;;;;;;0.40;0.40;;;18.50;69.10;;;;;;4953878;29;20518;-74
2022/05/27 03:20:21;;;;;;;0.30;0.30;;;18.50;69.20;;;;;;4853024;29;20506;-74
2022/05/27 03:23:05;;;;;;;0.80;0.50;;;18.40;69.20;;;;;;4953957;29;20117;-73
2022/05/27 03:25:50;;;;;;;0.50;0.50;;;18.40;69.60;;;;;;4953286;29;20031;-74
2022/05/27 03:28:35;;;;;;;0.50;0.50;;;18.40;69.80;;;;;;4935864;29;20380;-74
2022/05/27 03:31:06;;;;;;;0.65;0.50;;;18.40;70.10;;;;;;4953689;29;20059;-74
2022/05/27 03:33:45;;;;;;;1.43;0.50;;;18.30;70.10;;;;;;4953136;29;20077;-75
2022/05/27 03:36:33;;;;;;;0.68;0.57;;;18.30;70.20;;;;;;4953179;29;20547;-75
2022/05/27 03:39:06;;;;;;;1.23;0.55;;;18.30;70.40;;;;;;4953515;29;20078;-75
2022/05/27 03:41:45;;;;;;;0.40;0.40;;;18.30;70.70;;;;;;4953176;29;20058;-75
2022/05/27 03:44:18;;;;;;;0.35;0.35;;;18.30;70.80;;;;;;4953428;29;20047;-76
2022/05/27 03:46:49;;;;;;;0.30;0.30;;;18.30;70.60;;;;;;4953261;29;20337;-74
2022/05/27 03:49:14;;;;;;;0.43;0.43;;;18.30;70.90;;;;;;4953176;29;20028;-74
2022/05/27 03:51:52;;;;;;;0.60;0.60;;;18.30;70.90;;;;;;4953140;29;20035;-73
2022/05/27 03:54:18;;;;;;;0.65;0.40;;;18.30;70.90;;;;;;4953322;29;20070;-74
2022/05/27 03:56:43;;;;;;;0.40;0.40;;;18.30;71.10;;;;;;4953757;29;20429;-74
2022/05/27 03:59:13;;;;;;;0.35;0.35;;;18.30;71.40;;;;;;4953645;29;20035;-74
2022/05/27 04:01:42;;;;;;;0.50;0.50;;;18.30;71.50;;;;;;4953270;29;20035;-74
2022/05/27 04:04:11;;;;;;;0.40;0.40;;;18.30;71.80;;;;;;4953445;28;20070;-75
2022/05/27 04:06:37;;;;;;;0.60;0.47;;;18.30;72.20;;;;;;4956080;29;20063;-73
2022/05/27 04:09:03;;;;;;;0.50;0.50;;;18.30;72.30;;;;;;4956871;28;20062;-74
2022/05/27 04:11:30;;;;;;;0.45;0.40;;;18.30;72.40;;;;;;4938413;29;20058;-74
2022/05/27 04:13:56;;;;;;;0.93;0.50;;;18.20;72.70;;;;;;4956725;29;20034;-74
2022/05/27 04:16:23;;;;;;;0.60;0.60;;;18.30;72.90;;;;;;4954842;29;20027;-75
2022/05/27 04:18:49;;;;;;;0.88;0.60;;;18.30;72.70;;;;;;4956643;29;20031;-75
2022/05/27 04:21:15;;;;;;;1.00;0.80;;;18.30;73.00;;;;;;4954778;29;20135;-75
2022/05/27 04:23:41;;;;;;;0.43;0.40;;;18.30;73.00;;;;;;4955557;29;20019;-75
2022/05/27 04:26:07;;;;;;;0.93;0.40;;;18.30;72.80;;;;;;4953979;29;20090;-75
2022/05/27 04:28:33;;;;;;;0.50;0.50;;;18.30;73.00;;;;;;4955738;29;20101;-74
2022/05/27 04:31:00;;;;;;;0.95;0.70;;;18.30;73.20;;;;;;4956128;29;20472;-74
2022/05/27 04:33:27;;;;;;;0.80;0.55;;;18.30;73.80;;;;;;4955271;29;20026;-74
2022/05/27 04:35:54;;;;;;;1.65;0.82;;;18.40;72.90;;;;;;4955833;29;20129;-74
2022/05/27 04:38:21;;;;;;;0.60;0.52;;;18.30;73.40;;;;;;4955427;29;20464;-74
2022/05/27 04:40:47;;;;;;;0.50;0.50;;;18.30;73.50;;;;;;4955886;29;20440;-74
2022/05/27 04:43:14;;;;;;;0.80;0.65;;;18.30;74.30;;;;;;4955600;29;20086;-74
2022/05/27 04:45:40;;;;;;;0.43;0.43;;;18.30;73.80;;;;;;4955666;29;20127;-74
2022/05/27 04:48:09;;;;;;;0.57;0.45;;;18.40;74.00;;;;;;4955848;29;20500;-75
2022/05/27 04:50:35;;;;;;;1.23;0.50;;;18.40;73.60;;;;;;4938134;29;20023;-72
2022/05/27 04:53:01;;;;;;;0.95;0.52;;;18.40;73.80;;;;;;4955576;28;20070;-73
2022/05/27 04:55:30;;;;;;;1.48;0.80;;;18.40;73.80;;;;;;4955158;29;20050;-73
2022/05/27 04:57:56;;;;;;;1.42;0.63;;;18.40;73.90;;;;;;4955816;29;20027;-74
2022/05/27 05:00:25;;;;;;;1.42;0.47;;;18.50;73.60;;;;;;4954957;29;20050;-75
2022/05/27 05:02:51;;;;;;;0.68;0.68;;;18.60;73.50;;;;;;4955742;29;20035;-74
2022/05/27 05:05:19;;;;;;;0.63;0.55;;;18.60;73.10;;;;;;4954497;29;20542;-75
2022/05/27 05:07:48;;;;;;;0.40;0.40;;;18.70;72.90;;;;;;4955907;29;20166;-75
2022/05/27 05:10:19;;;;;;;0.50;0.50;;;18.80;72.50;;;;;;4955298;29;20026;-73
2022/05/27 05:12:45;;;;;;;1.90;0.60;;;18.90;72.70;;;;;;4955832;29;20027;-74
2022/05/27 05:15:11;;;;;;;0.73;0.70;;;19.50;72.70;;;;;;4938394;29;20383;-75
2022/05/27 05:17:38;;;;;;;4.97;0.57;;;20.10;70.80;;;;;;4937113;29;20871;-73
2022/05/27 05:20:05;;;;;;;0.60;0.50;;;20.40;66.00;;;;;;4955245;29;20031;-74
2022/05/27 05:22:31;;;;;;;0.50;0.50;;;20.50;65.20;;;;;;4954769;29;20039;-75
2022/05/27 05:24:57;;;;;;;0.50;0.50;;;20.70;66.60;;;;;;4955619;29;20030;-75
2022/05/27 05:27:25;;;;;;;1.33;0.50;;;20.90;64.80;;;;;;4955082;29;20059;-75
2022/05/27 05:29:55;;;;;;;0.60;0.60;;;21.90;64.60;;;;;;4955093;29;20110;-75
2022/05/27 05:32:22;;;;;;;0.60;0.47;;;23.40;59.40;;;;;;4955096;29;20058;-75
2022/05/27 05:34:48;;;;;;;0.60;0.60;;;24.90;53.50;;;;;;4955528;29;20103;-75
2022/05/27 05:37:14;;;;;;;0.45;0.45;;;26.20;49.90;;;;;;4955538;29;20027;-75
2022/05/27 05:39:40;;;;;;;0.45;0.45;;;27.20;46.90;;;;;;4954785;29;20024;-74
2022/05/27 05:42:07;;;;;;;1.95;0.50;;;28.10;44.90;;;;;;4955163;29;20044;-75
2022/05/27 05:44:33;;;;;;;0.95;0.80;;;28.60;43.40;;;;;;4937277;29;20443;-75
2022/05/27 05:47:00;;;;;;;0.75;0.60;;;29.10;42.30;;;;;;4954775;29;20445;-75
2022/05/27 05:49:26;;;;;;;0.43;0.43;;;30.20;41.00;;;;;;4954793;29;20032;-76
2022/05/27 05:51:54;;;;;;;1.08;0.63;;;30.40;40.00;;;;;;4955024;29;20035;-74
2022/05/27 05:54:21;;;;;;;0.60;0.50;;;31.30;39.00;;;;;;4954670;29;20027;-76
2022/05/27 05:56:48;;;;;;;0.40;0.40;;;31.60;38.10;;;;;;4954975;29;20475;-76
2022/05/27 05:59:15;;;;;;;0.73;0.50;;;32.30;36.90;;;;;;4955412;29;20034;-75
2022/05/27 06:01:42;;;;;;;4.25;0.60;;;32.70;35.80;;;;;;4954749;29;20039;-75
2022/05/27 06:04:08;;;;;;;0.40;0.40;;;33.10;35.90;;;;;;4953791;29;20479;-75
2022/05/27 06:06:34;;;;;;;0.63;0.63;;;33.40;34.50;;;;;;4954472;29;20115;-75
2022/05/27 06:08:59;;;;;;;0.43;0.43;;;33.20;34.10;;;;;;4937520;29;20487;-74
2022/05/27 06:11:25;;;;;;;1.02;0.57;;;33.60;34.90;;;;;;4954412;29;20114;-77
2022/05/27 06:13:50;;;;;;;2.45;0.60;;;33.60;33.60;;;;;;4954564;29;20495;-76
2022/05/27 06:16:16;;;;;;;0.40;0.40;;;33.50;33.80;;;;;;4953520;29;20052;-76
2022/05/27 06:18:42;;;;;;;1.77;0.60;;;32.50;34.10;;;;;;4954539;29;20030;-75
2022/05/27 06:21:08;;;;;;;1.15;0.55;;;30.90;35.50;;;;;;4954679;29;20049;-75
2022/05/27 06:23:34;;;;;;;0.50;0.50;;;29.80;37.70;;;;;;4954189;29;20032;-76
2022/05/27 06:26:06;;;;;;;0.75;0.60;;;29.80;38.50;;;;;;4954439;29;20055;-76
2022/05/27 06:36:46;;;;;;;0.40;0.40;;;28.00;40.10;;;;;;4953702;29;20052;-75
2022/05/27 06:39:12;;;;;;;0.40;0.40;;;28.10;41.10;;;;;;4953976;29;20038;-75
2022/05/27 06:41:38;;;;;;;0.63;0.40;;;28.50;39.10;;;;;;4953347;29;20062;-74
2022/05/27 06:44:04;;;;;;;0.50;0.50;;;28.90;38.80;;;;;;4954066;29;20403;-75
2022/05/27 06:46:31;;;;;;;0.40;0.40;;;29.20;38.50;;;;;;4953497;29;20058;-75
2022/05/27 06:48:56;;;;;;;0.52;0.52;;;29.40;37.60;;;;;;4954201;29;20039;-75
2022/05/27 06:51:22;;;;;;;0.60;0.30;;;29.50;38.00;;;;;;4953424;29;20174;-75
2022/05/27 06:53:49;;;;;;;0.88;0.60;;;29.40;38.00;;;;;;4952658;29;20031;-75
2022/05/27 06:56:15;;;;;;;0.90;0.60;;;29.20;37.80;;;;;;4953954;29;20102;-76
2022/05/27 06:58:42;;;;;;;1.40;0.50;;;28.80;37.80;;;;;;4952917;29;20106;-77
2022/05/27 07:01:08;;;;;;;0.95;0.50;;;28.40;38.60;;;;;;4953954;29;20042;-74
2022/05/27 07:03:37;;;;;;;0.47;0.47;;;28.40;38.90;;;;;;4953478;29;20023;-75
2022/05/27 07:06:04;;;;;;;0.95;0.60;;;27.90;39.40;;;;;;4953879;29;20027;-76
2022/05/27 07:08:30;;;;;;;0.40;0.40;;;27.60;40.00;;;;;;4953476;29;20035;-76
2022/05/27 07:10:55;;;;;;;0.50;0.50;;;27.30;40.60;;;;;;4953665;29;20035;-75
2022/05/27 07:13:21;;;;;;;0.60;0.60;;;27.10;41.60;;;;;;4953606;29;20461;-76
2022/05/27 07:15:46;;;;;;;1.90;0.95;;;27.10;41.80;;;;;;4953312;29;20023;-76
2022/05/27 07:18:12;;;;;;;1.35;1.05;;;27.30;41.50;;;;;;4936606;29;20460;-76
2022/05/27 07:20:40;;;;;;;0.60;0.40;;;27.50;41.50;;;;;;4953411;29;20038;-75
2022/05/27 07:23:06;;;;;;;0.50;0.50;;;27.50;41.50;;;;;;4954036;29;20027;-75
2022/05/27 07:25:35;;;;;;;0.50;0.47;;;27.80;41.20;;;;;;4953308;29;20356;-76
2022/05/27 07:28:07;;;;;;;0.50;0.50;;;27.80;41.00;;;;;;4953829;29;20118;-75
2022/05/27 07:30:34;;;;;;;0.40;0.40;;;28.00;41.00;;;;;;4952795;29;20527;-76
2022/05/27 07:33:00;;;;;;;1.25;0.50;;;28.10;40.80;;;;;;4953816;29;20060;-76
2022/05/27 07:35:26;;;;;;;0.57;0.57;;;28.20;40.00;;;;;;4953144;29;20031;-78
2022/05/27 07:37:51;;;;;;;0.63;0.45;;;28.20;40.20;;;;;;4953585;29;20031;-76
2022/05/27 07:40:17;;;;;;;0.50;0.50;;;28.30;40.00;;;;;;4956344;28;20114;-74
2022/05/27 07:42:43;;;;;;;1.38;0.40;;;28.30;39.90;;;;;;4956694;29;20455;-75
2022/05/27 07:45:12;;;;;;;0.60;0.40;;;28.50;38.90;;;;;;4957754;29;20035;-75
2022/05/27 07:47:38;;;;;;;0.80;0.55;;;28.70;39.10;;;;;;4956928;29;20476;-75
2022/05/27 07:50:04;;;;;;;0.50;0.50;;;28.40;39.00;;;;;;4957288;29;20168;-75
2022/05/27 07:52:32;;;;;;;0.52;0.50;;;28.40;39.60;;;;;;4957320;29;20110;-76
2022/05/27 07:54:58;;;;;;;0.47;0.47;;;28.40;39.10;;;;;;4957307;29;20329;-76
2022/05/27 07:57:24;;;;;;;0.73;0.43;;;28.50;39.10;;;;;;4957303;29;20059;-75
2022/05/27 08:00:12;;;;;;;2.88;0.50;;;28.20;39.40;;;;;;4956549;29;20027;-75
2022/05/27 08:02:38;;;;;;;0.50;0.50;;;28.00;39.50;;;;;;4956741;29;20114;-75
2022/05/27 08:05:04;;;;;;;0.75;0.65;;;27.80;40.20;;;;;;4957555;29;20058;-76
2022/05/27 08:07:30;;;;;;;0.90;0.43;;;27.70;40.60;;;;;;4957185;29;20097;-78
2022/05/27 08:09:56;;;;;;;0.52;0.52;;;27.60;40.40;;;;;;4939968;29;20039;-75
2022/05/27 08:12:21;;;;;;;0.50;0.50;;;27.50;40.70;;;;;;4956742;29;20111;-76
2022/05/27 08:14:48;;;;;;;0.47;0.47;;;27.40;40.80;;;;;;4939548;29;20282;-75
2022/05/27 08:17:14;;;;;;;0.45;0.45;;;27.30;40.80;;;;;;4957509;29;20035;-75
2022/05/27 08:19:39;;;;;;;0.47;0.47;;;27.20;41.00;;;;;;4957041;29;20408;-75
2022/05/27 08:22:05;;;;;;;0.75;0.32;;;27.00;41.00;;;;;;4956947;29;20035;-76
2022/05/27 08:24:31;;;;;;;0.57;0.50;;;26.80;41.90;;;;;;4956330;29;20062;-79
2022/05/27 08:26:56;;;;;;;0.75;0.75;;;26.40;42.30;;;;;;4956550;29;20027;-76
2022/05/27 08:29:22;;;;;;;0.50;0.40;;;26.30;43.00;;;;;;4956455;29;20033;-75
2022/05/27 08:31:48;;;;;;;2.80;0.40;;;26.10;43.20;;;;;;4956500;29;20046;-76
2022/05/27 08:39:47;;;;;;;1.65;0.63;;;25.80;44.60;;;;;;4956315;29;20037;-77
2022/05/27 08:42:25;;;;;;;0.80;0.70;;;25.80;45.30;;;;;;4955100;29;20035;-75
2022/05/27 08:45:00;;;;;;;0.40;0.40;;;25.80;45.50;;;;;;4956020;29;20150;-76
2022/05/27 08:47:35;;;;;;;0.95;0.75;;;25.70;45.30;;;;;;4956586;29;20051;-76
2022/05/27 08:50:09;;;;;;;0.50;0.50;;;25.40;45.20;;;;;;4955944;28;20428;-76
2022/05/27 08:52:49;;;;;;;0.47;0.47;;;25.40;45.40;;;;;;4955366;29;20490;-76
2022/05/27 09:01:12;;;;;;;0.50;0.50;;;24.80;47.20;;;;;;4955925;29;20046;-76
2022/05/27 09:03:45;;;;;;;1.33;0.60;;;24.60;47.10;;;;;;4955693;29;20479;-76
2022/05/27 09:06:13;;;;;;;0.40;0.40;;;24.50;47.40;;;;;;4956325;29;20176;-75
2022/05/27 09:08:38;;;;;;;0.68;0.63;;;24.50;47.00;;;;;;4954053;29;20035;-75
2022/05/27 09:11:32;;;;;;;0.50;0.50;;;24.40;47.50;;;;;;4955188;29;20105;-76
2022/05/27 09:14:19;;;;;;;2.30;0.65;;;24.30;47.90;;;;;;4956121;29;20023;-76
2022/05/27 09:16:55;;;;;;;0.70;0.50;;;24.20;48.60;;;;;;4955714;29;20036;-75
2022/05/27 09:19:20;;;;;;;1.85;0.57;;;24.10;47.90;;;;;;4956215;29;20470;-75
2022/05/27 09:21:58;;;;;;;3.28;0.80;;;24.10;48.50;;;;;;4955567;29;20035;-75
2022/05/27 09:24:41;;;;;;;2.03;1.02;;;24.10;48.50;;;;;;4955736;29;20019;-76
2022/05/27 09:27:20;;;;;;;2.40;0.50;;;24.10;48.30;;;;;;4956049;29;20124;-76
2022/05/27 09:29:55;;;;;;;0.60;0.60;;;24.20;48.10;;;;;;4955388;29;20027;-76
2022/05/27 09:32:40;;;;;;;0.60;0.52;;;24.10;48.20;;;;;;4955747;29;20031;-76
2022/05/27 09:35:12;;;;;;;0.47;0.47;;;24.10;47.00;;;;;;4955753;29;20027;-75
2022/05/27 09:37:43;;;;;;;0.50;0.50;;;24.00;47.00;;;;;;4955395;29;20036;-76
2022/05/27 09:40:22;;;;;;;0.85;0.57;;;24.00;47.10;;;;;;4955724;29;20034;-76
2022/05/27 09:42:58;;;;;;;0.52;0.50;;;24.00;47.70;;;;;;4937795;29;20085;-76
2022/05/27 09:45:24;;;;;;;0.85;0.65;;;24.00;47.70;;;;;;4955735;29;20023;-76
2022/05/27 09:47:57;;;;;;;0.60;0.60;;;24.00;47.90;;;;;;4955112;29;20041;-75
2022/05/27 09:50:31;;;;;;;0.50;0.45;;;24.00;47.20;;;;;;4955550;29;20023;-76
2022/05/27 09:52:58;;;;;;;0.60;0.60;;;24.10;46.60;;;;;;4955684;29;20032;-76
2022/05/27 09:55:31;;;;;;;0.73;0.52;;;24.20;47.40;;;;;;4938513;29;20408;-75
2022/05/27 09:58:02;;;;;;;0.40;0.40;;;24.20;46.90;;;;;;4954803;29;20031;-74
2022/05/27 10:00:36;;;;;;;0.40;0.40;;;24.30;47.10;;;;;;4954962;29;20106;-75
2022/05/27 10:03:29;;;;;;;0.45;0.45;;;24.30;48.00;;;;;;4954870;28;20031;-74
2022/05/27 10:06:02;;;;;;;1.33;0.63;;;24.50;47.80;;;;;;4954801;29;20322;-75
2022/05/27 10:08:35;;;;;;;0.55;0.50;;;24.50;47.70;;;;;;4955243;29;20035;-75
2022/05/27 10:11:06;;;;;;;0.63;0.50;;;24.50;47.20;;;;;;4937955;29;20495;-76
2022/05/27 10:13:34;;;;;;;0.63;0.40;;;24.70;48.00;;;;;;4955168;29;20027;-76
2022/05/27 10:16:11;;;;;;;0.50;0.50;;;24.80;47.10;;;;;;4954494;29;20039;-77
2022/05/27 10:18:38;;;;;;;3.30;0.85;;;24.90;46.60;;;;;;4954781;29;20031;-77
2022/05/27 10:21:19;;;;;;;0.50;0.47;;;24.90;46.40;;;;;;4937590;29;20487;-76
2022/05/27 10:23:54;;;;;;;0.47;0.40;;;24.80;46.20;;;;;;4954770;29;20035;-77
2022/05/27 10:26:30;;;;;;;0.47;0.40;;;24.80;46.70;;;;;;4954660;29;20502;-76
2022/05/27 10:29:07;;;;;;;0.68;0.68;;;24.80;46.60;;;;;;4954121;29;20110;-76
2022/05/27 10:31:34;;;;;;;2.45;1.25;;;24.80;45.70;;;;;;4954866;29;20107;-76
2022/05/27 10:34:00;;;;;;;0.40;0.40;;;24.80;45.90;;;;;;4954517;29;20023;-77
2022/05/27 10:36:49;;;;;;;0.38;0.38;;;24.80;45.50;;;;;;4937219;29;20093;-76
2022/05/27 10:39:36;;;;;;;0.50;0.50;;;24.70;45.50;;;;;;4954807;29;20110;-76
2022/05/27 10:42:11;;;;;;;2.85;0.50;;;24.70;45.50;;;;;;4936780;29;20036;-76
2022/05/27 10:44:39;;;;;;;0.60;0.60;;;24.70;46.10;;;;;;4954611;29;20455;-76
2022/05/27 10:47:17;;;;;;;0.70;0.63;;;24.70;47.40;;;;;;4954610;29;20035;-76
2022/05/27 10:50:10;;;;;;;1.55;0.60;;;24.70;47.20;;;;;;4953743;29;20387;-76
2022/05/27 10:52:59;;;;;;;0.38;0.38;;;24.70;46.70;;;;;;4954378;29;20042;-76
2022/05/27 10:55:31;;;;;;;0.85;0.70;;;24.70;46.40;;;;;;4954838;29;20322;-76
2022/05/27 11:04:14;;;;;;;0.50;0.50;;;24.80;46.40;;;;;;4934731;29;20042;-75
2022/05/27 11:07:08;;;;;;;0.38;0.38;;;24.90;46.60;;;;;;4935162;29;20146;-77
2022/05/27 11:09:41;;;;;;;0.88;0.45;;;24.90;47.00;;;;;;4947473;29;20033;-76
2022/05/27 11:12:18;;;;;;;0.60;0.55;;;25.00;47.20;;;;;;4954137;29;20031;-76
2022/05/27 11:15:12;;;;;;;0.93;0.60;;;25.00;47.00;;;;;;4953479;28;20027;-76
2022/05/27 11:17:56;;;;;;;1.60;0.40;;;25.00;47.10;;;;;;4954528;29;20207;-75
2022/05/27 11:20:46;;;;;;;0.95;0.52;;;25.00;47.80;;;;;;4954051;29;20106;-75
2022/05/27 11:23:17;;;;;;;0.70;0.60;;;25.00;47.70;;;;;;4954255;29;20118;-75
2022/05/27 11:26:10;;;;;;;0.80;0.50;;;25.00;48.10;;;;;;4953286;29;20038;-75
2022/05/27 11:29:18;;;;;;;0.55;0.50;;;25.10;48.50;;;;;;4953771;29;20055;-76
2022/05/27 11:32:06;;;;;;;0.82;0.60;;;25.10;48.40;;;;;;4952436;29;20039;-77
2022/05/27 11:34:42;;;;;;;0.52;0.50;;;25.10;48.20;;;;;;4954337;29;20035;-76
2022/05/27 11:37:29;;;;;;;0.50;0.50;;;25.00;47.60;;;;;;4954381;29;20027;-76
2022/05/27 11:40:13;;;;;;;3.65;0.70;;;25.00;48.40;;;;;;4953576;29;20094;-76
2022/05/27 11:42:57;;;;;;;1.05;0.57;;;25.10;48.60;;;;;;4954134;29;20089;-77
2022/05/27 11:45:26;;;;;;;0.40;0.40;;;25.10;48.80;;;;;;4953887;29;20065;-76
2022/05/27 11:47:59;;;;;;;0.63;0.63;;;25.10;48.00;;;;;;4953345;29;20062;-77
2022/05/27 11:50:54;;;;;;;1.73;0.75;;;25.10;48.00;;;;;;4936853;29;20038;-77
2022/05/27 11:53:24;;;;;;;0.60;0.60;;;25.10;47.90;;;;;;4943327;29;20142;-76
2022/05/27 11:55:59;;;;;;;0.63;0.50;;;25.00;47.50;;;;;;4953853;29;20066;-76
2022/05/27 11:58:48;;;;;;;1.30;0.60;;;25.00;47.70;;;;;;4953753;29;20055;-76
2022/05/27 12:01:37;;;;;;;0.70;0.68;;;25.00;48.00;;;;;;4954811;29;20472;-76
2022/05/27 12:04:30;;;;;;;0.70;0.50;;;24.90;48.00;;;;;;4953053;29;20118;-75
2022/05/27 12:07:22;;;;;;;0.80;0.57;;;24.90;47.70;;;;;;4953370;29;20114;-75
2022/05/27 12:09:56;;;;;;;2.45;0.82;;;24.90;47.50;;;;;;4952920;29;20063;-77
2022/05/27 12:12:28;;;;;;;1.48;1.02;;;24.90;48.20;;;;;;4936548;29;20031;-76
2022/05/27 12:15:06;;;;;;;1.02;0.60;;;25.00;48.50;;;;;;4951903;29;20031;-75
2022/05/27 12:17:47;;;;;;;1.13;0.70;;;25.00;48.90;;;;;;4936294;29;20384;-75
2022/05/27 12:20:16;;;;;;;;;;;25.00;48.70;;;;;;4953767;29;20472;-76
2022/05/27 12:22:42;;;;;;;0.68;0.68;;;25.00;48.80;;;;;;4953162;29;19914;-76
2022/05/27 12:25:15;;;;;;;0.38;0.38;;;25.00;48.90;;;;;;4952716;28;20060;-76
2022/05/27 12:27:42;;;;;;;1.20;0.60;;;25.00;48.30;;;;;;4956647;29;20027;-76
2022/05/27 12:30:11;;;;;;;0.68;0.45;;;25.00;48.50;;;;;;4948684;29;20035;-77
2022/05/27 12:32:40;;;;;;;0.60;0.57;;;24.90;48.30;;;;;;4952513;29;20031;-77
2022/05/27 12:35:26;;;;;;;0.95;0.60;;;24.90;48.70;;;;;;4954158;29;20218;-77
2022/05/27 12:38:17;;;;;;;0.73;0.60;;;24.80;48.90;;;;;;4934233;29;20225;-76
2022/05/27 12:40:45;;;;;;;;;;;24.80;49.10;;;;;;4961956;28;20043;-75
2022/05/27 12:43:24;;;;;;;0.47;0.47;;;24.80;48.80;;;;;;4964715;28;20049;-75
2022/05/27 12:45:50;;;;;;;0.52;0.52;;;24.80;48.20;;;;;;4965551;28;20024;-77
2022/05/27 12:48:29;;;;;;;0.45;0.45;;;24.80;48.60;;;;;;4968013;28;20031;-76
2022/05/27 12:51:00;;;;;;;0.50;0.50;;;24.80;47.80;;;;;;4937154;29;20040;-76
2022/05/27 12:53:45;;;;;;;0.98;0.68;;;24.80;48.20;;;;;;4937315;29;20023;-76
2022/05/27 13:02:21;;;;;;;0.40;0.40;;;24.90;47.90;;;;;;4936807;29;20055;-76
2022/05/27 13:04:47;;;;;;;0.40;0.40;;;24.90;47.70;;;;;;4937476;29;20035;-75
2022/05/27 13:07:14;;;;;;;0.95;0.60;;;24.90;48.10;;;;;;4947078;29;20028;-76
2022/05/27 13:09:43;;;;;;;0.82;0.65;;;24.90;47.20;;;;;;4955642;29;20027;-75
2022/05/27 13:12:30;;;;;;;0.88;0.70;;;24.90;47.10;;;;;;4955633;29;20042;-75
2022/05/27 13:15:06;;;;;;;0.40;0.40;;;24.90;47.60;;;;;;4952321;29;20460;-74
2022/05/27 13:17:35;;;;;;;0.40;0.40;;;24.90;47.10;;;;;;4955832;29;20070;-74
2022/05/27 13:20:04;;;;;;;4.18;1.00;;;25.00;47.60;;;;;;4955389;29;20110;-74
2022/05/27 13:22:34;;;;;;;0.65;0.52;;;25.10;47.40;;;;;;4955229;29;20118;-75
2022/05/27 13:25:19;;;;;;;;;;;25.10;47.40;;;;;;4936836;29;20055;-76
2022/05/27 13:27:46;;;;;;;2.15;0.50;;;25.10;47.10;;;;;;4936511;29;19911;-76
2022/05/27 13:30:14;;;;;;;0.45;0.40;;;25.10;47.20;;;;;;4936076;29;20038;-78
2022/05/27 13:32:58;;;;;;;0.47;0.40;;;25.00;47.20;;;;;;4949442;29;20040;-76
2022/05/27 13:35:27;;;;;;;0.40;0.40;;;25.00;47.60;;;;;;4955723;29;20031;-75
2022/05/27 13:37:56;;;;;;;0.65;0.50;;;24.90;47.40;;;;;;4955278;28;20031;-75
2022/05/27 13:40:33;;;;;;;0.98;0.52;;;24.90;47.80;;;;;;4955382;29;20030;-75
2022/05/27 13:43:06;;;;;;;0.55;0.55;;;24.90;48.50;;;;;;4955228;29;20464;-74
2022/05/27 13:45:39;;;;;;;1.13;0.80;;;24.90;48.50;;;;;;4938220;29;20035;-75
2022/05/27 13:48:32;;;;;;;0.98;0.55;;;24.90;48.40;;;;;;4955188;29;20027;-76
2022/05/27 13:51:13;;;;;;;0.45;0.45;;;25.00;47.90;;;;;;4935744;29;20044;-76
2022/05/27 13:53:40;;;;;;;0.50;0.50;;;25.00;47.20;;;;;;4941444;29;20511;-75
2022/05/27 13:56:22;;;;;;;0.90;0.57;;;25.00;46.80;;;;;;4954097;29;20476;-74